sensor_id;sensor_type;location;lat;lon;timestamp;P1;durP1;ratioP1;P2;durP2;ratioP2
14837;SDS011;7510;59.296;18.106;2022-10-24T00:01:07;4.80;;;3.17;;
14837;SDS011;7510;59.296;18.106;2022-10-24T00:03:33;3.83;;;3.43;;
14837;SDS011;7510;59.296;18.106;2022-10-24T00:05:59;5.10;;;3.50;;
14837;SDS011;7510;59.296;18.106;2022-10-24T00:08:24;3.70;;;3.10;;
14837;SDS011;7510;59.296;18.106;2022-10-24T00:10:50;4.40;;;2.90;;
14837;SDS011;7510;59.296;18.106;2022-10-24T00:13:15;3.53;;;3.10;;
14837;SDS011;7510;59.296;18.106;2022-10-24T00:15:43;4.07;;;3.20;;
14837;SDS011;7510;59.296;18.106;2022-10-24T00:18:11;4.37;;;3.57;;
14837;SDS011;7510;59.296;18.106;2022-10-24T00:20:36;3.20;;;2.90;;
14837;SDS011;7510;59.296;18.106;2022-10-24T00:23:02;4.07;;;3.30;;
14837;SDS011;7510;59.296;18.106;2022-10-24T00:25:28;5.60;;;3.70;;
14837;SDS011;7510;59.296;18.106;2022-10-24T00:27:53;5.87;;;3.80;;
14837;SDS011;7510;59.296;18.106;2022-10-24T00:30:19;4.33;;;3.40;;
14837;SDS011;7510;59.296;18.106;2022-10-24T00:32:44;3.53;;;3.07;;
14837;SDS011;7510;59.296;18.106;2022-10-24T00:35:10;3.40;;;3.07;;
14837;SDS011;7510;59.296;18.106;2022-10-24T00:37:35;4.83;;;3.50;;
14837;SDS011;7510;59.296;18.106;2022-10-24T00:40:02;4.90;;;3.60;;
14837;SDS011;7510;59.296;18.106;2022-10-24T00:42:29;5.70;;;3.57;;
14837;SDS011;7510;59.296;18.106;2022-10-24T00:44:55;4.40;;;3.27;;
14837;SDS011;7510;59.296;18.106;2022-10-24T00:47:26;5.17;;;3.60;;
14837;SDS011;7510;59.296;18.106;2022-10-24T00:50:03;4.77;;;3.83;;
14837;SDS011;7510;59.296;18.106;2022-10-24T00:52:39;3.03;;;2.73;;
14837;SDS011;7510;59.296;18.106;2022-10-24T00:55:09;3.40;;;3.10;;
14837;SDS011;7510;59.296;18.106;2022-10-24T00:57:47;6.07;;;3.40;;
14837;SDS011;7510;59.296;18.106;2022-10-24T01:00:34;5.07;;;3.73;;
14837;SDS011;7510;59.296;18.106;2022-10-24T01:03:00;4.23;;;3.60;;
14837;SDS011;7510;59.296;18.106;2022-10-24T01:05:27;5.07;;;3.50;;
14837;SDS011;7510;59.296;18.106;2022-10-24T01:08:37;5.17;;;3.87;;
14837;SDS011;7510;59.296;18.106;2022-10-24T01:13:57;5.43;;;3.70;;
14837;SDS011;7510;59.296;18.106;2022-10-24T01:21:33;5.53;;;3.73;;
14837;SDS011;7510;59.296;18.106;2022-10-24T01:40:51;3.33;;;2.93;;
14837;SDS011;7510;59.296;18.106;2022-10-24T01:46:20;3.37;;;2.80;;
14837;SDS011;7510;59.296;18.106;2022-10-24T01:48:52;7.00;;;2.97;;
14837;SDS011;7510;59.296;18.106;2022-10-24T01:51:22;4.07;;;2.70;;
14837;SDS011;7510;59.296;18.106;2022-10-24T01:53:51;4.80;;;3.43;;
14837;SDS011;7510;59.296;18.106;2022-10-24T01:56:17;3.63;;;2.77;;
14837;SDS011;7510;59.296;18.106;2022-10-24T01:58:43;3.77;;;2.83;;
14837;SDS011;7510;59.296;18.106;2022-10-24T02:01:11;3.43;;;2.70;;
14837;SDS011;7510;59.296;18.106;2022-10-24T02:03:41;2.87;;;2.57;;
14837;SDS011;7510;59.296;18.106;2022-10-24T02:06:13;3.27;;;2.93;;
14837;SDS011;7510;59.296;18.106;2022-10-24T02:08:43;3.43;;;3.03;;
14837;SDS011;7510;59.296;18.106;2022-10-24T02:11:12;3.00;;;2.70;;
14837;SDS011;7510;59.296;18.106;2022-10-24T02:13:57;3.90;;;2.93;;
14837;SDS011;7510;59.296;18.106;2022-10-24T02:16:26;3.87;;;2.77;;
14837;SDS011;7510;59.296;18.106;2022-10-24T02:18:54;3.10;;;2.73;;
14837;SDS011;7510;59.296;18.106;2022-10-24T02:24:00;3.37;;;2.80;;
14837;SDS011;7510;59.296;18.106;2022-10-24T02:26:36;3.60;;;3.10;;
14837;SDS011;7510;59.296;18.106;2022-10-24T02:29:13;3.97;;;3.10;;
14837;SDS011;7510;59.296;18.106;2022-10-24T02:31:45;3.43;;;2.80;;
14837;SDS011;7510;59.296;18.106;2022-10-24T02:34:14;4.53;;;3.00;;
14837;SDS011;7510;59.296;18.106;2022-10-24T02:36:42;3.80;;;2.33;;
14837;SDS011;7510;59.296;18.106;2022-10-24T02:39:10;3.33;;;2.70;;
14837;SDS011;7510;59.296;18.106;2022-10-24T02:41:38;3.73;;;2.77;;
14837;SDS011;7510;59.296;18.106;2022-10-24T02:44:06;3.17;;;2.70;;
14837;SDS011;7510;59.296;18.106;2022-10-24T02:46:34;2.97;;;2.67;;
14837;SDS011;7510;59.296;18.106;2022-10-24T02:49:00;4.53;;;2.53;;
14837;SDS011;7510;59.296;18.106;2022-10-24T02:51:28;3.63;;;2.87;;
14837;SDS011;7510;59.296;18.106;2022-10-24T02:53:56;3.40;;;2.50;;
14837;SDS011;7510;59.296;18.106;2022-10-24T02:56:23;3.53;;;2.87;;
14837;SDS011;7510;59.296;18.106;2022-10-24T02:58:49;3.50;;;3.20;;
14837;SDS011;7510;59.296;18.106;2022-10-24T03:01:14;5.03;;;3.10;;
14837;SDS011;7510;59.296;18.106;2022-10-24T03:03:40;2.73;;;2.40;;
14837;SDS011;7510;59.296;18.106;2022-10-24T03:06:05;3.60;;;3.27;;
14837;SDS011;7510;59.296;18.106;2022-10-24T03:08:31;3.83;;;3.07;;
14837;SDS011;7510;59.296;18.106;2022-10-24T03:10:57;5.77;;;3.37;;
14837;SDS011;7510;59.296;18.106;2022-10-24T03:13:22;4.30;;;3.40;;
14837;SDS011;7510;59.296;18.106;2022-10-24T03:15:47;4.83;;;3.00;;
14837;SDS011;7510;59.296;18.106;2022-10-24T03:18:13;3.87;;;2.93;;
14837;SDS011;7510;59.296;18.106;2022-10-24T03:20:38;4.00;;;2.70;;
14837;SDS011;7510;59.296;18.106;2022-10-24T03:23:04;4.33;;;2.73;;
14837;SDS011;7510;59.296;18.106;2022-10-24T03:25:29;3.73;;;3.33;;
14837;SDS011;7510;59.296;18.106;2022-10-24T03:27:55;6.43;;;2.77;;
14837;SDS011;7510;59.296;18.106;2022-10-24T03:30:20;4.03;;;3.10;;
14837;SDS011;7510;59.296;18.106;2022-10-24T03:32:46;2.90;;;2.50;;
14837;SDS011;7510;59.296;18.106;2022-10-24T03:35:12;4.93;;;2.63;;
14837;SDS011;7510;59.296;18.106;2022-10-24T03:37:37;2.73;;;2.50;;
14837;SDS011;7510;59.296;18.106;2022-10-24T03:40:03;3.33;;;2.43;;
14837;SDS011;7510;59.296;18.106;2022-10-24T03:42:28;4.50;;;3.00;;
14837;SDS011;7510;59.296;18.106;2022-10-24T03:44:54;3.20;;;2.70;;
14837;SDS011;7510;59.296;18.106;2022-10-24T03:47:19;3.70;;;2.57;;
14837;SDS011;7510;59.296;18.106;2022-10-24T03:49:45;4.37;;;3.17;;
14837;SDS011;7510;59.296;18.106;2022-10-24T03:52:10;3.40;;;2.73;;
14837;SDS011;7510;59.296;18.106;2022-10-24T03:54:36;3.60;;;3.00;;
14837;SDS011;7510;59.296;18.106;2022-10-24T03:57:03;5.80;;;2.37;;
14837;SDS011;7510;59.296;18.106;2022-10-24T03:59:28;4.30;;;2.40;;
14837;SDS011;7510;59.296;18.106;2022-10-24T04:01:54;3.07;;;2.40;;
14837;SDS011;7510;59.296;18.106;2022-10-24T04:04:20;6.27;;;2.60;;
14837;SDS011;7510;59.296;18.106;2022-10-24T04:06:45;2.90;;;2.10;;
14837;SDS011;7510;59.296;18.106;2022-10-24T04:09:10;2.40;;;2.20;;
14837;SDS011;7510;59.296;18.106;2022-10-24T04:11:36;3.13;;;2.30;;
14837;SDS011;7510;59.296;18.106;2022-10-24T04:14:03;5.90;;;2.13;;
14837;SDS011;7510;59.296;18.106;2022-10-24T04:16:29;2.73;;;1.77;;
14837;SDS011;7510;59.296;18.106;2022-10-24T04:18:58;1.70;;;1.60;;
14837;SDS011;7510;59.296;18.106;2022-10-24T04:21:23;1.90;;;1.70;;
14837;SDS011;7510;59.296;18.106;2022-10-24T04:23:49;1.60;;;1.50;;
14837;SDS011;7510;59.296;18.106;2022-10-24T04:26:15;1.57;;;1.17;;
14837;SDS011;7510;59.296;18.106;2022-10-24T04:28:41;2.13;;;1.30;;
14837;SDS011;7510;59.296;18.106;2022-10-24T04:31:06;1.50;;;1.40;;
14837;SDS011;7510;59.296;18.106;2022-10-24T04:33:32;2.07;;;1.63;;
14837;SDS011;7510;59.296;18.106;2022-10-24T04:35:57;2.30;;;1.40;;
14837;SDS011;7510;59.296;18.106;2022-10-24T04:38:23;1.40;;;1.30;;
14837;SDS011;7510;59.296;18.106;2022-10-24T04:40:49;2.47;;;1.40;;
14837;SDS011;7510;59.296;18.106;2022-10-24T04:43:17;1.60;;;1.47;;
14837;SDS011;7510;59.296;18.106;2022-10-24T04:45:43;1.60;;;1.20;;
14837;SDS011;7510;59.296;18.106;2022-10-24T04:48:08;2.03;;;1.20;;
14837;SDS011;7510;59.296;18.106;2022-10-24T04:50:34;1.53;;;1.40;;
14837;SDS011;7510;59.296;18.106;2022-10-24T04:53:00;2.60;;;1.30;;
14837;SDS011;7510;59.296;18.106;2022-10-24T04:55:26;4.57;;;1.50;;
14837;SDS011;7510;59.296;18.106;2022-10-24T04:57:52;1.37;;;1.27;;
14837;SDS011;7510;59.296;18.106;2022-10-24T05:00:17;1.97;;;1.10;;
14837;SDS011;7510;59.296;18.106;2022-10-24T05:02:43;1.07;;;0.93;;
14837;SDS011;7510;59.296;18.106;2022-10-24T05:05:08;1.00;;;1.00;;
14837;SDS011;7510;59.296;18.106;2022-10-24T05:07:34;3.07;;;1.20;;
14837;SDS011;7510;59.296;18.106;2022-10-24T05:09:59;1.13;;;1.00;;
14837;SDS011;7510;59.296;18.106;2022-10-24T05:12:25;1.47;;;1.20;;
14837;SDS011;7510;59.296;18.106;2022-10-24T05:14:50;1.30;;;1.20;;
14837;SDS011;7510;59.296;18.106;2022-10-24T05:17:15;1.07;;;1.00;;
14837;SDS011;7510;59.296;18.106;2022-10-24T05:19:41;2.70;;;0.90;;
14837;SDS011;7510;59.296;18.106;2022-10-24T05:22:06;2.13;;;0.90;;
14837;SDS011;7510;59.296;18.106;2022-10-24T05:24:32;0.83;;;0.60;;
14837;SDS011;7510;59.296;18.106;2022-10-24T05:26:57;2.20;;;1.00;;
14837;SDS011;7510;59.296;18.106;2022-10-24T05:29:23;1.73;;;0.60;;
14837;SDS011;7510;59.296;18.106;2022-10-24T05:31:49;1.37;;;0.60;;
14837;SDS011;7510;59.296;18.106;2022-10-24T05:34:15;0.73;;;0.73;;
14837;SDS011;7510;59.296;18.106;2022-10-24T05:36:40;1.20;;;0.47;;
14837;SDS011;7510;59.296;18.106;2022-10-24T05:39:06;0.60;;;0.60;;
14837;SDS011;7510;59.296;18.106;2022-10-24T05:41:31;1.90;;;0.50;;
14837;SDS011;7510;59.296;18.106;2022-10-24T05:43:57;1.43;;;0.50;;
14837;SDS011;7510;59.296;18.106;2022-10-24T05:46:23;0.80;;;0.73;;
14837;SDS011;7510;59.296;18.106;2022-10-24T05:48:48;1.30;;;0.60;;
14837;SDS011;7510;59.296;18.106;2022-10-24T05:51:14;2.53;;;0.63;;
14837;SDS011;7510;59.296;18.106;2022-10-24T05:53:39;0.47;;;0.47;;
14837;SDS011;7510;59.296;18.106;2022-10-24T05:56:05;0.60;;;0.50;;
14837;SDS011;7510;59.296;18.106;2022-10-24T05:58:31;1.20;;;0.67;;
14837;SDS011;7510;59.296;18.106;2022-10-24T06:00:56;0.43;;;0.30;;
14837;SDS011;7510;59.296;18.106;2022-10-24T06:03:22;0.50;;;0.40;;
14837;SDS011;7510;59.296;18.106;2022-10-24T06:05:48;0.70;;;0.37;;
14837;SDS011;7510;59.296;18.106;2022-10-24T06:08:14;2.10;;;0.60;;
14837;SDS011;7510;59.296;18.106;2022-10-24T06:10:39;0.50;;;0.23;;
14837;SDS011;7510;59.296;18.106;2022-10-24T06:13:05;0.50;;;0.40;;
14837;SDS011;7510;59.296;18.106;2022-10-24T06:15:31;3.70;;;0.70;;
14837;SDS011;7510;59.296;18.106;2022-10-24T06:17:56;2.53;;;0.80;;
14837;SDS011;7510;59.296;18.106;2022-10-24T06:20:21;0.60;;;0.40;;
14837;SDS011;7510;59.296;18.106;2022-10-24T06:22:47;2.03;;;0.53;;
14837;SDS011;7510;59.296;18.106;2022-10-24T06:25:14;0.47;;;0.47;;
14837;SDS011;7510;59.296;18.106;2022-10-24T06:27:40;0.80;;;0.47;;
14837;SDS011;7510;59.296;18.106;2022-10-24T06:30:06;0.43;;;0.40;;
14837;SDS011;7510;59.296;18.106;2022-10-24T06:32:34;1.47;;;0.47;;
14837;SDS011;7510;59.296;18.106;2022-10-24T06:34:59;0.47;;;0.43;;
14837;SDS011;7510;59.296;18.106;2022-10-24T06:37:26;0.50;;;0.40;;
14837;SDS011;7510;59.296;18.106;2022-10-24T06:39:52;2.07;;;0.40;;
14837;SDS011;7510;59.296;18.106;2022-10-24T06:42:18;3.87;;;0.70;;
14837;SDS011;7510;59.296;18.106;2022-10-24T06:44:43;0.93;;;0.40;;
14837;SDS011;7510;59.296;18.106;2022-10-24T06:47:09;0.77;;;0.40;;
14837;SDS011;7510;59.296;18.106;2022-10-24T06:49:34;0.93;;;0.63;;
14837;SDS011;7510;59.296;18.106;2022-10-24T06:52:00;0.50;;;0.40;;
14837;SDS011;7510;59.296;18.106;2022-10-24T06:54:25;1.00;;;0.60;;
14837;SDS011;7510;59.296;18.106;2022-10-24T06:56:50;0.60;;;0.30;;
14837;SDS011;7510;59.296;18.106;2022-10-24T06:59:16;0.63;;;0.50;;
14837;SDS011;7510;59.296;18.106;2022-10-24T07:01:43;0.93;;;0.37;;
14837;SDS011;7510;59.296;18.106;2022-10-24T07:04:18;0.30;;;0.30;;
14837;SDS011;7510;59.296;18.106;2022-10-24T07:06:44;1.07;;;0.33;;
14837;SDS011;7510;59.296;18.106;2022-10-24T07:09:10;1.07;;;0.70;;
14837;SDS011;7510;59.296;18.106;2022-10-24T07:11:36;1.83;;;0.20;;
14837;SDS011;7510;59.296;18.106;2022-10-24T07:14:01;0.60;;;0.50;;
14837;SDS011;7510;59.296;18.106;2022-10-24T07:16:28;4.17;;;0.50;;
14837;SDS011;7510;59.296;18.106;2022-10-24T07:18:54;2.23;;;0.50;;
14837;SDS011;7510;59.296;18.106;2022-10-24T07:21:21;1.50;;;0.50;;
14837;SDS011;7510;59.296;18.106;2022-10-24T07:23:49;0.70;;;0.50;;
14837;SDS011;7510;59.296;18.106;2022-10-24T07:26:16;0.97;;;0.50;;
14837;SDS011;7510;59.296;18.106;2022-10-24T07:28:42;1.23;;;0.50;;
14837;SDS011;7510;59.296;18.106;2022-10-24T07:31:10;1.07;;;0.50;;
14837;SDS011;7510;59.296;18.106;2022-10-24T07:33:39;1.03;;;0.50;;
14837;SDS011;7510;59.296;18.106;2022-10-24T07:36:05;1.10;;;0.57;;
14837;SDS011;7510;59.296;18.106;2022-10-24T07:38:30;2.00;;;0.50;;
14837;SDS011;7510;59.296;18.106;2022-10-24T07:40:56;0.47;;;0.40;;
14837;SDS011;7510;59.296;18.106;2022-10-24T07:43:21;1.33;;;0.50;;
14837;SDS011;7510;59.296;18.106;2022-10-24T07:45:47;0.40;;;0.40;;
14837;SDS011;7510;59.296;18.106;2022-10-24T07:48:14;3.50;;;0.53;;
14837;SDS011;7510;59.296;18.106;2022-10-24T07:50:43;0.87;;;0.40;;
14837;SDS011;7510;59.296;18.106;2022-10-24T07:53:10;1.27;;;0.50;;
14837;SDS011;7510;59.296;18.106;2022-10-24T07:55:37;1.13;;;0.50;;
14837;SDS011;7510;59.296;18.106;2022-10-24T07:58:03;0.70;;;0.30;;
14837;SDS011;7510;59.296;18.106;2022-10-24T08:00:29;0.20;;;0.20;;
14837;SDS011;7510;59.296;18.106;2022-10-24T08:02:54;0.50;;;0.50;;
14837;SDS011;7510;59.296;18.106;2022-10-24T08:05:20;0.83;;;0.43;;
14837;SDS011;7510;59.296;18.106;2022-10-24T08:07:45;0.60;;;0.33;;
14837;SDS011;7510;59.296;18.106;2022-10-24T08:10:11;1.27;;;0.50;;
14837;SDS011;7510;59.296;18.106;2022-10-24T08:12:37;0.40;;;0.23;;
14837;SDS011;7510;59.296;18.106;2022-10-24T08:15:04;0.37;;;0.33;;
14837;SDS011;7510;59.296;18.106;2022-10-24T08:17:30;0.40;;;0.40;;
14837;SDS011;7510;59.296;18.106;2022-10-24T08:19:56;2.70;;;0.33;;
14837;SDS011;7510;59.296;18.106;2022-10-24T08:22:21;4.47;;;0.70;;
14837;SDS011;7510;59.296;18.106;2022-10-24T08:24:47;0.60;;;0.40;;
14837;SDS011;7510;59.296;18.106;2022-10-24T08:27:12;1.20;;;0.40;;
14837;SDS011;7510;59.296;18.106;2022-10-24T08:29:38;0.53;;;0.37;;
14837;SDS011;7510;59.296;18.106;2022-10-24T08:32:03;0.47;;;0.37;;
14837;SDS011;7510;59.296;18.106;2022-10-24T08:34:31;1.50;;;0.70;;
14837;SDS011;7510;59.296;18.106;2022-10-24T08:36:57;1.10;;;0.43;;
14837;SDS011;7510;59.296;18.106;2022-10-24T08:39:22;1.93;;;0.50;;
14837;SDS011;7510;59.296;18.106;2022-10-24T08:41:49;2.27;;;0.43;;
14837;SDS011;7510;59.296;18.106;2022-10-24T08:47:02;2.10;;;0.30;;
14837;SDS011;7510;59.296;18.106;2022-10-24T08:50:09;1.30;;;0.30;;
14837;SDS011;7510;59.296;18.106;2022-10-24T08:53:06;1.23;;;0.40;;
14837;SDS011;7510;59.296;18.106;2022-10-24T08:55:45;1.20;;;0.60;;
14837;SDS011;7510;59.296;18.106;2022-10-24T08:58:19;0.70;;;0.57;;
14837;SDS011;7510;59.296;18.106;2022-10-24T09:00:52;0.50;;;0.23;;
14837;SDS011;7510;59.296;18.106;2022-10-24T09:03:22;0.70;;;0.40;;
14837;SDS011;7510;59.296;18.106;2022-10-24T09:06:01;1.13;;;0.40;;
14837;SDS011;7510;59.296;18.106;2022-10-24T09:11:19;0.70;;;0.33;;
14837;SDS011;7510;59.296;18.106;2022-10-24T09:13:46;1.13;;;0.30;;
14837;SDS011;7510;59.296;18.106;2022-10-24T09:16:13;1.50;;;0.30;;
14837;SDS011;7510;59.296;18.106;2022-10-24T09:18:44;1.50;;;0.57;;
14837;SDS011;7510;59.296;18.106;2022-10-24T09:21:12;0.40;;;0.40;;
14837;SDS011;7510;59.296;18.106;2022-10-24T09:23:39;0.63;;;0.50;;
14837;SDS011;7510;59.296;18.106;2022-10-24T09:26:11;1.73;;;1.00;;
14837;SDS011;7510;59.296;18.106;2022-10-24T09:28:40;0.60;;;0.30;;
14837;SDS011;7510;59.296;18.106;2022-10-24T09:31:16;0.87;;;0.40;;
14837;SDS011;7510;59.296;18.106;2022-10-24T09:33:45;1.60;;;0.73;;
14837;SDS011;7510;59.296;18.106;2022-10-24T09:36:13;2.47;;;0.37;;
14837;SDS011;7510;59.296;18.106;2022-10-24T09:38:40;3.60;;;0.80;;
14837;SDS011;7510;59.296;18.106;2022-10-24T09:41:21;2.77;;;0.50;;
14837;SDS011;7510;59.296;18.106;2022-10-24T09:43:54;3.43;;;0.80;;
14837;SDS011;7510;59.296;18.106;2022-10-24T09:46:26;2.10;;;0.50;;
14837;SDS011;7510;59.296;18.106;2022-10-24T09:49:03;4.80;;;0.60;;
14837;SDS011;7510;59.296;18.106;2022-10-24T09:51:40;1.13;;;0.60;;
14837;SDS011;7510;59.296;18.106;2022-10-24T09:56:48;1.33;;;0.50;;
14837;SDS011;7510;59.296;18.106;2022-10-24T09:59:26;1.23;;;0.50;;
14837;SDS011;7510;59.296;18.106;2022-10-24T10:02:04;1.90;;;0.60;;
14837;SDS011;7510;59.296;18.106;2022-10-24T10:04:35;1.60;;;0.47;;
14837;SDS011;7510;59.296;18.106;2022-10-24T10:07:07;2.80;;;0.60;;
14837;SDS011;7510;59.296;18.106;2022-10-24T10:09:34;1.43;;;0.50;;
14837;SDS011;7510;59.296;18.106;2022-10-24T10:12:22;1.17;;;0.30;;
14837;SDS011;7510;59.296;18.106;2022-10-24T10:14:59;1.73;;;0.70;;
14837;SDS011;7510;59.296;18.106;2022-10-24T10:17:27;0.63;;;0.43;;
14837;SDS011;7510;59.296;18.106;2022-10-24T10:19:55;1.83;;;0.40;;
14837;SDS011;7510;59.296;18.106;2022-10-24T10:22:29;1.50;;;0.50;;
14837;SDS011;7510;59.296;18.106;2022-10-24T10:24:56;1.93;;;0.50;;
14837;SDS011;7510;59.296;18.106;2022-10-24T10:35:27;0.87;;;0.60;;
14837;SDS011;7510;59.296;18.106;2022-10-24T10:38:08;1.50;;;0.60;;
14837;SDS011;7510;59.296;18.106;2022-10-24T10:40:42;1.17;;;0.60;;
14837;SDS011;7510;59.296;18.106;2022-10-24T10:45:40;2.00;;;0.40;;
14837;SDS011;7510;59.296;18.106;2022-10-24T10:50:48;1.80;;;0.40;;
14837;SDS011;7510;59.296;18.106;2022-10-24T10:59:23;2.40;;;0.40;;
14837;SDS011;7510;59.296;18.106;2022-10-24T11:02:02;1.50;;;0.70;;
14837;SDS011;7510;59.296;18.106;2022-10-24T11:08:06;1.13;;;0.40;;
14837;SDS011;7510;59.296;18.106;2022-10-24T11:10:59;0.57;;;0.40;;
14837;SDS011;7510;59.296;18.106;2022-10-24T11:13:50;1.07;;;0.43;;
14837;SDS011;7510;59.296;18.106;2022-10-24T11:16:34;2.37;;;0.40;;
14837;SDS011;7510;59.296;18.106;2022-10-24T11:19:00;0.77;;;0.40;;
14837;SDS011;7510;59.296;18.106;2022-10-24T11:21:33;2.37;;;0.50;;
14837;SDS011;7510;59.296;18.106;2022-10-24T11:29:41;1.30;;;0.37;;
14837;SDS011;7510;59.296;18.106;2022-10-24T11:35:28;4.03;;;0.70;;
14837;SDS011;7510;59.296;18.106;2022-10-24T11:38:05;0.87;;;0.70;;
14837;SDS011;7510;59.296;18.106;2022-10-24T11:40:33;3.27;;;0.60;;
14837;SDS011;7510;59.296;18.106;2022-10-24T11:43:19;1.07;;;0.40;;
14837;SDS011;7510;59.296;18.106;2022-10-24T11:45:51;3.47;;;0.70;;
14837;SDS011;7510;59.296;18.106;2022-10-24T11:48:29;1.83;;;0.40;;
14837;SDS011;7510;59.296;18.106;2022-10-24T11:51:02;4.63;;;0.60;;
14837;SDS011;7510;59.296;18.106;2022-10-24T11:58:48;0.53;;;0.37;;
14837;SDS011;7510;59.296;18.106;2022-10-24T12:15:12;3.40;;;0.70;;
14837;SDS011;7510;59.296;18.106;2022-10-24T12:20:37;1.60;;;0.87;;
14837;SDS011;7510;59.296;18.106;2022-10-24T12:23:04;2.30;;;0.80;;
14837;SDS011;7510;59.296;18.106;2022-10-24T12:25:35;1.13;;;0.60;;
14837;SDS011;7510;59.296;18.106;2022-10-24T12:28:05;2.27;;;0.80;;
14837;SDS011;7510;59.296;18.106;2022-10-24T12:30:42;1.67;;;0.77;;
14837;SDS011;7510;59.296;18.106;2022-10-24T12:35:51;1.93;;;0.90;;
14837;SDS011;7510;59.296;18.106;2022-10-24T12:43:38;0.80;;;0.80;;
14837;SDS011;7510;59.296;18.106;2022-10-24T12:48:42;2.43;;;1.00;;
14837;SDS011;7510;59.296;18.106;2022-10-24T12:59:25;1.47;;;0.90;;
14837;SDS011;7510;59.296;18.106;2022-10-24T13:07:18;2.87;;;0.90;;
14837;SDS011;7510;59.296;18.106;2022-10-24T13:12:45;1.47;;;1.13;;
14837;SDS011;7510;59.296;18.106;2022-10-24T13:15:25;1.57;;;0.90;;
14837;SDS011;7510;59.296;18.106;2022-10-24T13:20:43;0.77;;;0.53;;
14837;SDS011;7510;59.296;18.106;2022-10-24T13:23:17;3.03;;;0.50;;
14837;SDS011;7510;59.296;18.106;2022-10-24T13:25:50;2.20;;;0.83;;
14837;SDS011;7510;59.296;18.106;2022-10-24T13:30:48;1.57;;;0.90;;
14837;SDS011;7510;59.296;18.106;2022-10-24T13:38:44;2.40;;;1.23;;
14837;SDS011;7510;59.296;18.106;2022-10-24T13:43:52;4.10;;;1.40;;
14837;SDS011;7510;59.296;18.106;2022-10-24T13:46:26;2.70;;;1.07;;
14837;SDS011;7510;59.296;18.106;2022-10-24T13:48:59;1.73;;;1.17;;
14837;SDS011;7510;59.296;18.106;2022-10-24T13:51:36;1.00;;;1.00;;
14837;SDS011;7510;59.296;18.106;2022-10-24T13:54:10;2.53;;;1.00;;
14837;SDS011;7510;59.296;18.106;2022-10-24T13:56:42;2.83;;;1.00;;
14837;SDS011;7510;59.296;18.106;2022-10-24T14:01:57;1.23;;;1.07;;
14837;SDS011;7510;59.296;18.106;2022-10-24T14:04:26;3.03;;;0.83;;
14837;SDS011;7510;59.296;18.106;2022-10-24T14:06:58;6.20;;;1.60;;
14837;SDS011;7510;59.296;18.106;2022-10-24T14:09:38;3.63;;;1.17;;
14837;SDS011;7510;59.296;18.106;2022-10-24T14:12:05;5.93;;;1.50;;
14837;SDS011;7510;59.296;18.106;2022-10-24T14:14:34;6.37;;;1.70;;
14837;SDS011;7510;59.296;18.106;2022-10-24T14:17:05;4.00;;;1.20;;
14837;SDS011;7510;59.296;18.106;2022-10-24T14:19:32;2.90;;;1.10;;
14837;SDS011;7510;59.296;18.106;2022-10-24T14:22:00;1.30;;;0.90;;
14837;SDS011;7510;59.296;18.106;2022-10-24T14:24:26;1.87;;;1.37;;
14837;SDS011;7510;59.296;18.106;2022-10-24T14:26:54;4.23;;;1.07;;
14837;SDS011;7510;59.296;18.106;2022-10-24T14:29:21;2.43;;;1.33;;
14837;SDS011;7510;59.296;18.106;2022-10-24T14:31:55;2.90;;;1.23;;
14837;SDS011;7510;59.296;18.106;2022-10-24T14:34:22;2.90;;;1.50;;
14837;SDS011;7510;59.296;18.106;2022-10-24T14:36:49;5.30;;;1.10;;
14837;SDS011;7510;59.296;18.106;2022-10-24T14:39:15;2.50;;;1.17;;
14837;SDS011;7510;59.296;18.106;2022-10-24T14:41:48;2.87;;;1.10;;
14837;SDS011;7510;59.296;18.106;2022-10-24T14:44:15;4.70;;;1.47;;
14837;SDS011;7510;59.296;18.106;2022-10-24T14:46:43;1.70;;;1.37;;
14837;SDS011;7510;59.296;18.106;2022-10-24T14:49:20;1.53;;;1.03;;
14837;SDS011;7510;59.296;18.106;2022-10-24T14:52:39;2.97;;;1.00;;
14837;SDS011;7510;59.296;18.106;2022-10-24T14:54:59;3.53;;;1.50;;
14837;SDS011;7510;59.296;18.106;2022-10-24T14:57:28;2.27;;;1.47;;
14837;SDS011;7510;59.296;18.106;2022-10-24T14:59:56;3.00;;;1.50;;
14837;SDS011;7510;59.296;18.106;2022-10-24T15:02:31;3.07;;;1.70;;
14837;SDS011;7510;59.296;18.106;2022-10-24T15:07:45;5.00;;;1.93;;
14837;SDS011;7510;59.296;18.106;2022-10-24T15:12:39;6.33;;;2.10;;
14837;SDS011;7510;59.296;18.106;2022-10-24T15:15:25;4.50;;;2.00;;
14837;SDS011;7510;59.296;18.106;2022-10-24T15:20:31;2.77;;;2.30;;
14837;SDS011;7510;59.296;18.106;2022-10-24T15:22:59;3.20;;;1.93;;
14837;SDS011;7510;59.296;18.106;2022-10-24T15:25:33;3.67;;;1.70;;
14837;SDS011;7510;59.296;18.106;2022-10-24T15:28:01;4.63;;;2.03;;
14837;SDS011;7510;59.296;18.106;2022-10-24T15:30:36;2.73;;;2.33;;
14837;SDS011;7510;59.296;18.106;2022-10-24T15:33:03;5.67;;;2.50;;
14837;SDS011;7510;59.296;18.106;2022-10-24T15:35:33;4.70;;;2.13;;
14837;SDS011;7510;59.296;18.106;2022-10-24T15:38:02;2.40;;;1.90;;
14837;SDS011;7510;59.296;18.106;2022-10-24T15:40:34;5.03;;;2.60;;
14837;SDS011;7510;59.296;18.106;2022-10-24T15:43:00;5.67;;;2.33;;
14837;SDS011;7510;59.296;18.106;2022-10-24T15:45:26;5.23;;;2.40;;
14837;SDS011;7510;59.296;18.106;2022-10-24T15:47:51;3.93;;;2.10;;
14837;SDS011;7510;59.296;18.106;2022-10-24T15:50:18;4.53;;;2.80;;
14837;SDS011;7510;59.296;18.106;2022-10-24T15:52:49;4.10;;;1.90;;
14837;SDS011;7510;59.296;18.106;2022-10-24T15:55:19;4.67;;;1.40;;
14837;SDS011;7510;59.296;18.106;2022-10-24T15:57:50;1.47;;;1.37;;
14837;SDS011;7510;59.296;18.106;2022-10-24T16:00:17;5.40;;;2.07;;
14837;SDS011;7510;59.296;18.106;2022-10-24T16:02:45;4.00;;;2.13;;
14837;SDS011;7510;59.296;18.106;2022-10-24T16:05:35;2.27;;;1.67;;
14837;SDS011;7510;59.296;18.106;2022-10-24T16:08:00;2.90;;;1.90;;
14837;SDS011;7510;59.296;18.106;2022-10-24T16:10:26;2.90;;;2.20;;
14837;SDS011;7510;59.296;18.106;2022-10-24T16:12:52;2.67;;;1.50;;
14837;SDS011;7510;59.296;18.106;2022-10-24T16:15:19;3.47;;;1.80;;
14837;SDS011;7510;59.296;18.106;2022-10-24T16:17:48;5.87;;;2.57;;
14837;SDS011;7510;59.296;18.106;2022-10-24T16:20:13;4.33;;;1.80;;
14837;SDS011;7510;59.296;18.106;2022-10-24T16:22:39;4.13;;;2.30;;
14837;SDS011;7510;59.296;18.106;2022-10-24T16:25:06;1.43;;;1.03;;
14837;SDS011;7510;59.296;18.106;2022-10-24T16:27:32;4.50;;;1.47;;
14837;SDS011;7510;59.296;18.106;2022-10-24T16:29:58;3.83;;;2.20;;
14837;SDS011;7510;59.296;18.106;2022-10-24T16:32:23;3.57;;;2.23;;
14837;SDS011;7510;59.296;18.106;2022-10-24T16:34:49;5.20;;;1.93;;
14837;SDS011;7510;59.296;18.106;2022-10-24T16:37:16;4.43;;;2.40;;
14837;SDS011;7510;59.296;18.106;2022-10-24T16:39:43;6.63;;;2.70;;
14837;SDS011;7510;59.296;18.106;2022-10-24T16:42:09;4.07;;;2.27;;
14837;SDS011;7510;59.296;18.106;2022-10-24T16:44:35;9.87;;;3.03;;
14837;SDS011;7510;59.296;18.106;2022-10-24T16:47:01;2.57;;;1.30;;
14837;SDS011;7510;59.296;18.106;2022-10-24T16:49:30;2.73;;;1.77;;
14837;SDS011;7510;59.296;18.106;2022-10-24T16:51:56;3.57;;;2.10;;
14837;SDS011;7510;59.296;18.106;2022-10-24T16:54:22;6.40;;;2.50;;
14837;SDS011;7510;59.296;18.106;2022-10-24T16:56:48;5.63;;;2.67;;
14837;SDS011;7510;59.296;18.106;2022-10-24T16:59:14;7.90;;;3.00;;
14837;SDS011;7510;59.296;18.106;2022-10-24T17:01:40;3.77;;;2.23;;
14837;SDS011;7510;59.296;18.106;2022-10-24T17:04:06;6.27;;;2.37;;
14837;SDS011;7510;59.296;18.106;2022-10-24T17:06:32;5.23;;;2.30;;
14837;SDS011;7510;59.296;18.106;2022-10-24T17:08:58;3.53;;;2.00;;
14837;SDS011;7510;59.296;18.106;2022-10-24T17:11:23;3.90;;;2.40;;
14837;SDS011;7510;59.296;18.106;2022-10-24T17:13:49;4.77;;;3.27;;
14837;SDS011;7510;59.296;18.106;2022-10-24T17:16:14;4.07;;;2.20;;
14837;SDS011;7510;59.296;18.106;2022-10-24T17:18:40;6.17;;;2.80;;
14837;SDS011;7510;59.296;18.106;2022-10-24T17:21:05;5.73;;;2.33;;